Time;durP1;ratioP1;P1;durP2;ratioP2;P2;SDS_P1;SDS_P2;PMS_P1;PMS_P2;Temp;Humidity;BMP_temperature;BMP_pressure;BME280_temperature;BME280_humidity;BME280_pressure;Samples;Min_cycle;Max_cycle;Signal;HPM_P1;HPM_P2
2021/12/25 00:00:29;;;;;;;3.83;1.50;;;20.60;71.70;;;;;;7871208;28;20197;-59
2021/12/25 00:04:15;;;;;;;1.85;1.50;;;20.60;71.10;;;;;;7872157;28;20650;-60
2021/12/25 00:08:00;;;;;;;1.60;1.23;;;20.60;71.30;;;;;;7871304;28;20234;-61
2021/12/25 00:11:46;;;;;;;1.73;1.35;;;20.60;70.80;;;;;;7872042;28;20696;-59
2021/12/25 00:15:31;;;;;;;2.28;1.20;;;20.60;70.80;;;;;;7872014;28;20169;-61
2021/12/25 00:19:17;;;;;;;2.40;1.40;;;20.60;70.20;;;;;;7870802;28;20173;-61
2021/12/25 00:23:05;;;;;;;1.80;1.40;;;20.50;70.20;;;;;;7871318;28;20654;-58
2021/12/25 00:30:43;;;;;;;1.40;1.13;;;20.60;70.00;;;;;;7870306;28;20296;-61
2021/12/25 00:34:29;;;;;;;2.85;1.30;;;20.60;69.80;;;;;;7870152;28;20666;-60
2021/12/25 00:38:14;;;;;;;2.15;1.33;;;20.50;69.50;;;;;;7870168;28;20764;-58
2021/12/25 00:42:01;;;;;;;0.88;0.88;;;20.50;69.40;;;;;;7870572;28;20201;-61
2021/12/25 00:45:46;;;;;;;2.70;1.00;;;20.40;69.30;;;;;;7870608;28;20275;-61
2021/12/25 00:49:32;;;;;;;3.90;1.20;;;20.40;69.30;;;;;;7869623;28;20216;-61
2021/12/25 00:53:18;;;;;;;2.83;1.00;;;20.40;69.30;;;;;;7870074;28;20209;-62
2021/12/25 00:57:03;;;;;;;1.13;1.02;;;20.40;69.20;;;;;;7870340;28;20269;-60
2021/12/25 01:00:49;;;;;;;1.80;1.02;;;20.40;69.20;;;;;;7869544;28;20258;-61
2021/12/25 01:04:35;;;;;;;1.30;1.20;;;20.40;69.10;;;;;;7869988;28;20179;-61
2021/12/25 01:08:20;;;;;;;1.10;1.00;;;20.40;69.10;;;;;;7869253;28;20201;-60
2021/12/25 01:12:06;;;;;;;1.27;1.15;;;20.30;68.90;;;;;;7869697;28;20201;-61
2021/12/25 01:16:13;;;;;;;1.52;1.00;;;20.40;69.10;;;;;;7869698;28;20519;-61
2021/12/25 01:20:25;;;;;;;0.85;0.85;;;20.30;68.90;;;;;;7868920;28;20173;-61
2021/12/25 01:28:40;;;;;;;1.85;0.90;;;20.30;68.70;;;;;;7868940;28;20176;-61
2021/12/25 01:36:34;;;;;;;1.45;1.05;;;20.30;68.50;;;;;;7869693;28;20268;-60
2021/12/25 01:40:44;;;;;;;0.93;0.90;;;20.30;68.40;;;;;;7867364;28;20200;-60
2021/12/25 01:48:35;;;;;;;0.90;0.90;;;20.20;68.10;;;;;;7868610;28;20728;-59
2021/12/25 01:52:26;;;;;;;0.65;0.65;;;20.20;68.00;;;;;;7869075;28;20227;-62
2021/12/25 01:56:12;;;;;;;0.73;0.60;;;20.20;68.10;;;;;;7869561;28;20173;-58
2021/12/25 01:59:59;;;;;;;1.67;0.90;;;20.20;68.00;;;;;;7868460;28;20268;-61
2021/12/25 02:03:45;;;;;;;0.90;0.80;;;20.20;67.90;;;;;;7869372;28;20762;-58
2021/12/25 02:07:31;;;;;;;0.65;0.65;;;20.20;67.80;;;;;;7868667;28;20595;-59
2021/12/25 02:11:16;;;;;;;0.95;0.77;;;20.20;67.70;;;;;;7869103;28;20747;-59
2021/12/25 02:15:09;;;;;;;0.88;0.80;;;20.20;67.70;;;;;;7868865;28;20231;-61
2021/12/25 02:22:45;;;;;;;1.60;0.70;;;20.20;67.40;;;;;;7868557;28;20213;-60
2021/12/25 02:26:32;;;;;;;2.03;0.50;;;20.20;67.30;;;;;;7868610;28;20658;-60
2021/12/25 02:30:17;;;;;;;1.05;0.80;;;20.10;67.00;;;;;;7867639;28;20685;-61
2021/12/25 02:34:03;;;;;;;0.40;0.40;;;20.10;67.00;;;;;;7868413;28;20646;-60
2021/12/25 02:37:49;;;;;;;0.75;0.52;;;20.20;66.90;;;;;;7867639;28;20914;-61
2021/12/25 02:41:34;;;;;;;0.52;0.47;;;20.20;66.80;;;;;;7868094;28;20586;-60
2021/12/25 02:45:22;;;;;;;0.82;0.40;;;20.20;66.80;;;;;;7868320;28;20359;-61
2021/12/25 02:49:12;;;;;;;0.40;0.40;;;20.10;66.80;;;;;;7867556;28;20209;-61
2021/12/25 02:53:00;;;;;;;0.98;0.60;;;20.10;66.50;;;;;;7868454;28;20209;-61
2021/12/25 02:56:46;;;;;;;1.23;0.50;;;20.10;66.60;;;;;;7868159;28;20177;-62
2021/12/25 03:00:36;;;;;;;3.25;0.68;;;20.10;66.50;;;;;;7871822;28;20220;-61
2021/12/25 03:04:22;;;;;;;1.98;0.55;;;20.10;66.40;;;;;;7873608;28;20631;-62
2021/12/25 03:08:09;;;;;;;0.70;0.63;;;20.10;66.40;;;;;;7872674;28;20273;-61
2021/12/25 03:11:55;;;;;;;1.67;0.47;;;20.10;66.50;;;;;;7873412;28;20735;-62
2021/12/25 03:15:46;;;;;;;0.85;0.52;;;20.10;66.50;;;;;;7873361;28;20606;-62
2021/12/25 03:19:33;;;;;;;1.27;0.50;;;20.10;66.50;;;;;;7872834;28;20173;-62
2021/12/25 03:23:23;;;;;;;0.95;0.40;;;20.00;66.40;;;;;;7872994;28;20921;-62
2021/12/25 03:27:09;;;;;;;2.35;0.70;;;20.10;66.50;;;;;;7873039;28;20239;-62
2021/12/25 03:30:58;;;;;;;1.63;0.60;;;20.10;66.50;;;;;;7872056;28;20244;-61
2021/12/25 03:34:44;;;;;;;0.80;0.47;;;20.10;66.50;;;;;;7872898;28;20185;-62
2021/12/25 03:38:30;;;;;;;0.68;0.50;;;20.10;66.50;;;;;;7872130;28;20756;-61
2021/12/25 03:42:15;;;;;;;0.90;0.63;;;20.10;66.50;;;;;;7872854;28;20568;-60
2021/12/25 03:46:01;;;;;;;0.50;0.50;;;20.10;66.50;;;;;;7872870;28;20559;-62
2021/12/25 03:57:40;;;;;;;0.90;0.63;;;20.10;66.40;;;;;;7871664;28;20345;-60
2021/12/25 04:05:17;;;;;;;0.98;0.70;;;20.10;66.50;;;;;;7871870;28;20201;-61
2021/12/25 04:09:10;;;;;;;2.63;0.90;;;20.10;66.50;;;;;;7870849;28;20193;-61
2021/12/25 04:12:55;;;;;;;0.98;0.63;;;20.10;66.50;;;;;;7871638;28;20681;-61
2021/12/25 04:16:41;;;;;;;1.75;0.90;;;20.10;66.50;;;;;;7872147;28;20567;-60
2021/12/25 04:20:27;;;;;;;2.83;1.00;;;20.10;66.50;;;;;;7870595;28;20201;-60
2021/12/25 04:24:13;;;;;;;0.77;0.73;;;20.00;66.50;;;;;;7871573;28;20173;-59
2021/12/25 04:28:07;;;;;;;0.90;0.60;;;20.00;66.40;;;;;;7870304;28;20677;-61
2021/12/25 05:03:58;;;;;;;1.10;1.00;;;20.00;66.30;;;;;;7870123;28;20185;-60
2021/12/25 05:07:44;;;;;;;3.47;1.10;;;20.00;66.30;;;;;;7869271;28;20181;-61
2021/12/25 05:11:29;;;;;;;1.75;1.00;;;20.00;66.30;;;;;;7870077;28;20213;-62
2021/12/25 05:15:15;;;;;;;2.15;1.00;;;20.00;66.30;;;;;;7870194;28;20682;-62
2021/12/25 05:19:00;;;;;;;1.15;1.00;;;20.00;66.30;;;;;;7869203;28;20346;-61
2021/12/25 05:22:46;;;;;;;0.80;0.80;;;20.00;66.20;;;;;;7869223;28;20254;-62
2021/12/25 05:26:32;;;;;;;1.27;1.00;;;20.00;66.20;;;;;;7869675;28;20181;-62
2021/12/25 05:30:18;;;;;;;1.65;0.95;;;20.00;66.30;;;;;;7868684;28;20201;-63
2021/12/25 05:34:04;;;;;;;1.00;0.90;;;19.90;66.50;;;;;;7869352;28;20689;-62
2021/12/25 05:37:56;;;;;;;2.00;1.27;;;19.90;66.60;;;;;;7868843;28;20227;-61
2021/12/25 05:41:41;;;;;;;1.10;1.00;;;19.90;66.40;;;;;;7869394;28;20201;-61
2021/12/25 05:45:27;;;;;;;1.38;0.90;;;19.90;66.40;;;;;;7869264;28;20183;-61
2021/12/25 05:49:12;;;;;;;1.63;1.13;;;19.90;66.40;;;;;;7854164;28;20255;-61
2021/12/25 05:52:58;;;;;;;1.52;1.13;;;19.80;66.40;;;;;;7837770;28;20206;-61
2021/12/25 05:56:43;;;;;;;1.80;1.00;;;19.80;66.30;;;;;;7837856;28;20197;-62
2021/12/25 06:00:31;;;;;;;6.22;1.35;;;19.80;66.40;;;;;;7850023;28;20583;-61
2021/12/25 06:04:16;;;;;;;1.38;1.27;;;19.80;66.40;;;;;;7859469;28;20565;-61
2021/12/25 06:08:02;;;;;;;2.45;1.40;;;19.80;66.30;;;;;;7867473;28;20188;-60
2021/12/25 06:11:48;;;;;;;4.68;1.38;;;19.80;66.30;;;;;;7868630;28;20654;-61
2021/12/25 06:15:33;;;;;;;1.90;1.20;;;19.80;66.30;;;;;;7868763;28;20642;-60
2021/12/25 06:19:19;;;;;;;11.35;1.40;;;19.80;66.40;;;;;;7867898;28;20190;-62
2021/12/25 06:23:05;;;;;;;2.85;1.30;;;19.70;66.70;;;;;;7868549;28;20670;-62
2021/12/25 06:26:50;;;;;;;9.52;1.38;;;19.70;66.80;;;;;;7868475;28;20184;-61
2021/12/25 06:30:38;;;;;;;6.53;1.58;;;19.70;67.00;;;;;;7867522;28;20691;-61
2021/12/25 06:34:24;;;;;;;1.52;1.33;;;19.70;67.00;;;;;;7871478;28;20174;-62
2021/12/25 06:38:09;;;;;;;8.07;1.52;;;19.70;66.90;;;;;;7873763;28;20169;-60
2021/12/25 06:41:55;;;;;;;12.57;1.58;;;19.70;67.10;;;;;;7874002;28;20197;-62
2021/12/25 06:45:41;;;;;;;8.63;1.60;;;19.70;67.10;;;;;;7874141;28;20583;-62
2021/12/25 06:49:28;;;;;;;8.73;1.80;;;19.70;67.00;;;;;;7873273;28;20212;-62
2021/12/25 06:53:13;;;;;;;9.25;1.65;;;19.70;66.90;;;;;;7873836;28;20211;-62
2021/12/25 06:56:59;;;;;;;7.65;1.55;;;19.70;66.80;;;;;;7873743;28;20177;-62
2021/12/25 07:00:44;;;;;;;4.25;1.50;;;19.70;67.00;;;;;;7873066;28;20667;-62
2021/12/25 07:04:30;;;;;;;11.52;2.13;;;19.60;67.10;;;;;;7873716;28;20177;-62
2021/12/25 07:08:15;;;;;;;6.72;1.80;;;19.70;66.80;;;;;;7872684;28;20185;-62
2021/12/25 07:12:01;;;;;;;7.93;1.40;;;19.70;67.00;;;;;;7873403;28;20600;-61
2021/12/25 07:15:47;;;;;;;4.20;1.63;;;19.60;65.90;;;;;;7873513;28;20180;-62
2021/12/25 07:19:32;;;;;;;9.40;2.03;;;19.60;66.50;;;;;;7872804;28;20169;-62
2021/12/25 07:23:18;;;;;;;6.57;1.73;;;19.60;67.10;;;;;;7873446;28;20209;-62
2021/12/25 07:27:05;;;;;;;7.55;1.58;;;19.50;66.90;;;;;;7873349;28;20173;-62
2021/12/25 07:30:50;;;;;;;5.55;1.50;;;19.50;67.00;;;;;;7872221;28;20201;-62
2021/12/25 07:34:36;;;;;;;7.38;1.60;;;19.50;66.90;;;;;;7872762;28;20223;-62
2021/12/25 07:38:22;;;;;;;3.42;1.40;;;19.50;67.10;;;;;;7872044;28;20188;-60
2021/12/25 07:42:08;;;;;;;6.15;1.40;;;19.50;67.10;;;;;;7872392;28;20237;-60
2021/12/25 07:45:53;;;;;;;5.03;1.73;;;19.50;67.10;;;;;;7871945;28;20181;-61
2021/12/25 07:49:39;;;;;;;6.35;1.92;;;19.50;67.20;;;;;;7871580;28;20201;-61
2021/12/25 07:53:25;;;;;;;2.95;1.42;;;19.50;67.10;;;;;;7872033;28;20580;-60
2021/12/25 07:57:10;;;;;;;4.13;1.55;;;19.40;66.90;;;;;;7872196;28;20223;-60
2021/12/25 08:00:57;;;;;;;5.45;2.38;;;19.40;66.80;;;;;;7871211;28;20199;-60
2021/12/25 08:04:42;;;;;;;5.43;2.38;;;19.40;65.50;;;;;;7871811;28;20185;-59
2021/12/25 08:08:28;;;;;;;9.70;2.38;;;19.40;62.70;;;;;;7870869;28;20201;-61
2021/12/25 08:12:13;;;;;;;16.00;3.97;;;19.30;60.70;;;;;;7871564;28;20200;-60
2021/12/25 08:15:59;;;;;;;9.25;3.20;;;19.20;59.40;;;;;;7871351;28;20219;-61
2021/12/25 08:19:44;;;;;;;10.27;3.22;;;19.10;62.10;;;;;;7870950;28;20181;-62
2021/12/25 08:23:30;;;;;;;13.95;2.40;;;19.10;63.80;;;;;;7871135;28;20240;-60
2021/12/25 08:27:16;;;;;;;14.32;2.83;;;19.10;65.80;;;;;;7871209;28;20177;-60
2021/12/25 08:31:02;;;;;;;8.25;2.60;;;19.10;65.50;;;;;;7870037;28;20266;-61
2021/12/25 08:34:48;;;;;;;13.60;3.63;;;19.10;65.70;;;;;;7870922;28;20170;-61
2021/12/25 08:38:34;;;;;;;9.38;3.65;;;19.20;64.70;;;;;;7870163;28;20181;-61
2021/12/25 08:42:21;;;;;;;14.25;4.78;;;19.20;65.50;;;;;;7870597;28;20296;-61
2021/12/25 08:46:15;;;;;;;16.02;7.38;;;19.20;66.10;;;;;;7870598;28;20571;-61
2021/12/25 08:50:07;;;;;;;19.88;8.63;;;19.20;66.10;;;;;;7869656;28;20256;-60
2021/12/25 08:53:53;;;;;;;23.10;10.60;;;19.20;66.40;;;;;;7871056;28;20181;-59
2021/12/25 08:57:38;;;;;;;17.77;10.98;;;19.20;66.30;;;;;;7868614;28;20185;-59
2021/12/25 09:01:25;;;;;;;32.53;10.55;;;19.20;66.40;;;;;;7870224;28;20233;-59
2021/12/25 09:05:10;;;;;;;27.45;11.85;;;19.30;66.60;;;;;;7869942;28;20238;-60
2021/12/25 09:08:56;;;;;;;21.67;10.20;;;19.20;67.30;;;;;;7869073;28;20193;-60
2021/12/25 09:12:43;;;;;;;27.20;10.13;;;19.30;67.30;;;;;;7869690;28;20281;-60
2021/12/25 09:16:28;;;;;;;18.92;10.20;;;19.20;67.20;;;;;;7869966;28;20639;-60
2021/12/25 09:20:18;;;;;;;20.92;9.95;;;19.20;67.10;;;;;;7869356;28;20610;-60
2021/12/25 09:24:04;;;;;;;18.95;9.32;;;19.20;67.10;;;;;;7870076;28;20176;-60
2021/12/25 09:27:50;;;;;;;17.52;8.88;;;19.20;67.00;;;;;;7869192;28;20212;-60
2021/12/25 09:31:36;;;;;;;18.77;8.20;;;19.20;67.00;;;;;;7869742;28;20231;-60
2021/12/25 09:35:21;;;;;;;16.55;8.23;;;19.20;67.80;;;;;;7869546;28;20197;-61
2021/12/25 09:39:07;;;;;;;19.33;7.70;;;19.20;66.90;;;;;;7868699;28;20208;-60
2021/12/25 09:42:54;;;;;;;16.02;7.85;;;19.30;66.90;;;;;;7869308;28;20200;-60
2021/12/25 09:46:40;;;;;;;12.48;6.85;;;19.30;66.90;;;;;;7869548;28;20268;-60
2021/12/25 09:50:25;;;;;;;16.83;7.50;;;19.30;67.00;;;;;;7868236;28;20216;-60
2021/12/25 09:54:15;;;;;;;15.57;7.28;;;19.20;66.70;;;;;;7869203;28;20180;-61
2021/12/25 09:58:01;;;;;;;13.32;6.60;;;19.30;66.90;;;;;;7868516;28;20256;-60
2021/12/25 10:01:49;;;;;;;24.10;9.60;;;19.20;66.90;;;;;;7868934;28;20258;-58
2021/12/25 10:05:45;;;;;;;20.70;7.05;;;19.30;66.40;;;;;;7868934;28;20180;-60
2021/12/25 10:09:31;;;;;;;20.88;7.60;;;19.30;65.90;;;;;;7873282;28;20208;-57
2021/12/25 10:13:19;;;;;;;21.63;7.45;;;19.30;66.40;;;;;;7875122;28;20755;-59
2021/12/25 10:17:13;;;;;;;19.95;6.40;;;19.30;66.20;;;;;;7875059;28;20173;-60
2021/12/25 10:21:24;;;;;;;20.50;6.68;;;19.30;64.50;;;;;;7873858;28;20210;-60
2021/12/25 10:25:15;;;;;;;28.75;6.70;;;19.30;64.60;;;;;;7874824;28;20178;-60
2021/12/25 10:29:24;;;;;;;17.38;5.85;;;19.30;65.20;;;;;;7874689;28;20205;-59
2021/12/25 10:33:42;;;;;;;11.65;6.00;;;19.40;65.90;;;;;;7874495;28;20196;-60
2021/12/25 10:37:28;;;;;;;11.95;6.25;;;19.40;66.00;;;;;;7873503;28;20243;-59
2021/12/25 10:41:20;;;;;;;13.70;5.72;;;19.40;66.20;;;;;;7874086;28;20244;-60
2021/12/25 10:45:13;;;;;;;14.35;5.40;;;19.40;66.20;;;;;;7874151;28;20662;-59
2021/12/25 10:49:11;;;;;;;11.23;4.95;;;19.40;67.10;;;;;;7873236;28;20201;-60
2021/12/25 10:52:56;;;;;;;14.82;5.53;;;19.40;66.20;;;;;;7873615;28;20212;-60
2021/12/25 10:56:44;;;;;;;13.82;5.57;;;19.50;66.20;;;;;;7873701;28;20724;-60
2021/12/25 11:00:33;;;;;;;9.95;4.55;;;19.50;66.10;;;;;;7872775;28;20591;-60
2021/12/25 11:04:31;;;;;;;11.00;5.10;;;19.50;66.00;;;;;;7873823;28;20173;-60
2021/12/25 11:08:20;;;;;;;7.25;4.20;;;19.60;66.00;;;;;;7873213;28;20169;-59
2021/12/25 11:12:21;;;;;;;8.38;4.10;;;19.60;65.90;;;;;;7873183;28;20247;-60
2021/12/25 11:16:20;;;;;;;8.07;4.30;;;19.70;66.00;;;;;;7873127;28;20177;-60
2021/12/25 11:20:08;;;;;;;6.07;4.10;;;19.80;65.90;;;;;;7871578;28;20196;-60
2021/12/25 11:24:12;;;;;;;7.53;3.88;;;19.80;65.80;;;;;;7873184;28;20192;-61
2021/12/25 11:28:00;;;;;;;9.45;3.70;;;19.80;65.70;;;;;;7872593;28;20653;-60
2021/12/25 11:31:48;;;;;;;6.13;3.30;;;19.90;65.60;;;;;;7872904;28;20235;-59
2021/12/25 11:35:35;;;;;;;6.32;3.85;;;19.90;65.50;;;;;;7872961;28;20174;-60
2021/12/25 11:39:23;;;;;;;6.07;3.75;;;20.00;65.50;;;;;;7871971;28;20647;-61
2021/12/25 11:43:09;;;;;;;5.50;3.40;;;20.10;65.40;;;;;;7872432;28;20193;-61
2021/12/25 11:46:54;;;;;;;7.28;3.90;;;20.10;65.30;;;;;;7872462;28;20185;-60
2021/12/25 11:50:43;;;;;;;8.70;3.67;;;20.20;65.10;;;;;;7871268;28;20245;-59
2021/12/25 11:58:42;;;;;;;5.47;3.33;;;20.30;64.70;;;;;;7871716;28;20177;-59
2021/12/25 12:02:41;;;;;;;6.28;3.00;;;20.30;64.70;;;;;;7872383;28;20694;-59
2021/12/25 12:06:45;;;;;;;5.55;3.25;;;20.40;64.70;;;;;;7871795;28;20264;-60
2021/12/25 12:10:46;;;;;;;9.45;5.18;;;20.50;64.60;;;;;;7870745;28;20301;-60
2021/12/25 12:14:32;;;;;;;9.00;6.00;;;20.50;64.60;;;;;;7871483;28;20209;-60
2021/12/25 12:18:31;;;;;;;7.95;5.20;;;20.50;64.20;;;;;;7870749;28;20177;-59
2021/12/25 12:22:37;;;;;;;11.40;5.57;;;20.60;64.30;;;;;;7871072;28;20653;-61
2021/12/25 12:26:44;;;;;;;7.78;5.38;;;20.70;64.20;;;;;;7871086;28;20580;-60
2021/12/25 12:30:32;;;;;;;8.23;5.55;;;20.70;64.00;;;;;;7870042;28;20292;-60
2021/12/25 12:34:29;;;;;;;7.22;5.32;;;20.70;64.00;;;;;;7870995;28;20260;-60
2021/12/25 12:38:38;;;;;;;6.50;5.20;;;20.80;63.80;;;;;;7869932;28;20177;-59
2021/12/25 12:42:43;;;;;;;9.98;4.75;;;20.80;63.60;;;;;;7870362;28;20194;-59
2021/12/25 12:46:51;;;;;;;10.60;5.00;;;20.90;63.50;;;;;;7870647;28;20272;-60
2021/12/25 12:50:38;;;;;;;10.95;4.55;;;21.00;63.50;;;;;;7869525;28;20209;-61
2021/12/25 12:54:42;;;;;;;6.10;4.43;;;21.00;63.30;;;;;;7870255;28;20199;-60
2021/12/25 12:58:28;;;;;;;10.18;5.13;;;21.10;63.30;;;;;;7869566;28;20535;-61
2021/12/25 13:02:14;;;;;;;8.15;4.45;;;21.20;63.20;;;;;;7870169;28;20303;-60
2021/12/25 13:06:10;;;;;;;9.43;4.57;;;21.20;63.10;;;;;;7870263;28;20666;-61
2021/12/25 13:10:07;;;;;;;8.07;4.60;;;21.30;62.80;;;;;;7869394;28;20209;-61
2021/12/25 13:14:04;;;;;;;6.22;4.60;;;21.30;62.80;;;;;;7869831;28;20184;-61
2021/12/25 13:17:59;;;;;;;10.82;4.65;;;21.40;62.80;;;;;;7869116;28;20177;-61
2021/12/25 13:21:45;;;;;;;7.68;4.32;;;21.50;62.70;;;;;;7869730;28;20275;-61
2021/12/25 13:25:31;;;;;;;8.15;4.32;;;21.50;62.70;;;;;;7869488;28;20205;-61
2021/12/25 13:29:22;;;;;;;7.38;4.55;;;21.50;62.50;;;;;;7868579;28;20696;-61
2021/12/25 13:33:12;;;;;;;7.22;4.15;;;21.60;62.50;;;;;;7869507;28;20193;-60
2021/12/25 13:36:59;;;;;;;5.75;4.10;;;21.60;62.50;;;;;;7869424;28;20532;-59
2021/12/25 13:40:48;;;;;;;7.80;4.60;;;21.60;62.40;;;;;;7868612;28;20671;-61
2021/12/25 13:44:35;;;;;;;5.18;4.13;;;21.60;62.40;;;;;;7869031;28;20185;-61
2021/12/25 13:48:20;;;;;;;6.78;4.00;;;21.60;62.40;;;;;;7868419;28;20169;-61
2021/12/25 13:52:34;;;;;;;5.20;3.92;;;21.70;62.30;;;;;;7869097;28;20231;-60
2021/12/25 13:56:19;;;;;;;5.22;3.92;;;21.70;62.40;;;;;;7863094;28;20193;-59
2021/12/25 14:00:15;;;;;;;4.38;3.90;;;21.70;62.20;;;;;;7868079;28;20203;-60
2021/12/25 14:04:11;;;;;;;4.68;3.88;;;21.70;62.20;;;;;;7868853;28;20267;-60
2021/12/25 14:07:57;;;;;;;4.15;3.50;;;21.70;62.20;;;;;;7868039;28;20196;-59
2021/12/25 14:11:54;;;;;;;5.47;3.53;;;21.70;62.20;;;;;;7868550;28;20209;-60
2021/12/25 14:15:43;;;;;;;5.05;3.28;;;21.70;62.10;;;;;;7868902;28;20268;-60
2021/12/25 14:19:31;;;;;;;5.43;3.58;;;21.80;62.10;;;;;;7867922;28;20544;-59
2021/12/25 14:23:20;;;;;;;4.53;3.50;;;21.80;62.00;;;;;;7868453;28;20239;-60
2021/12/25 14:27:16;;;;;;;4.55;3.50;;;21.80;61.90;;;;;;7868499;28;20174;-59
2021/12/25 14:31:03;;;;;;;4.82;3.85;;;21.80;61.90;;;;;;7867596;28;20625;-60
2021/12/25 14:34:49;;;;;;;5.00;3.97;;;21.80;61.80;;;;;;7868371;28;20173;-59
2021/12/25 14:38:37;;;;;;;5.07;3.72;;;21.80;61.80;;;;;;7868070;28;20169;-59
2021/12/25 14:42:40;;;;;;;6.90;4.13;;;21.90;61.80;;;;;;7868210;28;20221;-60
2021/12/25 14:46:26;;;;;;;4.47;3.58;;;21.90;61.90;;;;;;7868358;28;20170;-59
2021/12/25 14:50:17;;;;;;;5.35;4.00;;;21.90;61.70;;;;;;7867581;28;20262;-61
2021/12/25 14:54:04;;;;;;;4.90;4.05;;;21.90;61.70;;;;;;7870006;28;20200;-61
2021/12/25 14:57:49;;;;;;;5.63;4.22;;;21.90;61.60;;;;;;7873389;28;20227;-62
2021/12/25 15:01:40;;;;;;;6.43;4.18;;;21.90;61.50;;;;;;7873873;28;20197;-60
2021/12/25 15:05:36;;;;;;;6.63;4.80;;;21.90;61.50;;;;;;7873826;28;20268;-62
2021/12/25 15:09:25;;;;;;;9.05;3.97;;;22.00;61.50;;;;;;7872980;28;20208;-62
2021/12/25 15:13:18;;;;;;;6.57;4.40;;;22.00;61.40;;;;;;7873474;28;20189;-61
2021/12/25 15:17:09;;;;;;;7.18;4.53;;;22.00;61.40;;;;;;7873334;28;20702;-62
2021/12/25 15:21:10;;;;;;;6.18;4.38;;;21.90;61.30;;;;;;7872356;28;20208;-62
2021/12/25 15:25:03;;;;;;;5.95;4.05;;;22.00;61.50;;;;;;7873049;28;20200;-60
2021/12/25 15:28:58;;;;;;;5.88;4.50;;;22.00;61.40;;;;;;7872706;28;20527;-62
2021/12/25 15:32:47;;;;;;;9.00;4.43;;;21.90;61.20;;;;;;7872651;28;20193;-61
2021/12/25 15:36:35;;;;;;;5.78;4.20;;;21.90;61.30;;;;;;7872617;28;20723;-61
2021/12/25 15:40:23;;;;;;;6.03;4.25;;;21.90;61.40;;;;;;7871832;28;20279;-62
2021/12/25 15:44:09;;;;;;;5.63;3.83;;;21.90;61.30;;;;;;7872959;28;20178;-62
2021/12/25 15:47:55;;;;;;;5.93;3.80;;;21.90;61.30;;;;;;7871698;28;20256;-62
2021/12/25 15:51:48;;;;;;;7.75;4.47;;;21.90;61.40;;;;;;7872305;28;20205;-61
2021/12/25 15:55:34;;;;;;;5.07;4.05;;;21.90;61.40;;;;;;7872393;28;20210;-62
2021/12/25 15:59:19;;;;;;;5.72;4.60;;;21.90;61.40;;;;;;7871369;28;20416;-62
2021/12/25 16:03:06;;;;;;;5.78;4.20;;;21.80;61.40;;;;;;7871691;28;20209;-62
2021/12/25 16:06:52;;;;;;;6.05;3.80;;;21.80;61.60;;;;;;7871427;28;20204;-62
2021/12/25 16:10:38;;;;;;;5.82;4.32;;;21.80;61.50;;;;;;7870906;28;20205;-62
2021/12/25 16:14:24;;;;;;;5.38;4.38;;;21.80;61.50;;;;;;7871582;28;20260;-62
2021/12/25 16:18:10;;;;;;;5.13;3.92;;;21.70;61.40;;;;;;7871065;28;20188;-62
2021/12/25 16:21:57;;;;;;;5.38;3.65;;;21.70;61.60;;;;;;7871477;28;20670;-62
2021/12/25 16:25:46;;;;;;;4.65;3.63;;;21.70;61.60;;;;;;7871983;28;20178;-61
2021/12/25 16:29:32;;;;;;;5.60;3.85;;;21.70;61.70;;;;;;7870483;28;20204;-62
2021/12/25 16:33:18;;;;;;;4.93;4.05;;;21.70;61.70;;;;;;7871759;28;20193;-62
2021/12/25 16:37:05;;;;;;;5.40;3.95;;;21.60;61.70;;;;;;7871707;28;20187;-62
2021/12/25 16:40:52;;;;;;;4.47;3.60;;;21.60;61.70;;;;;;7870454;28;20193;-62
2021/12/25 16:44:41;;;;;;;6.00;4.05;;;21.60;61.70;;;;;;7871235;28;20181;-62
2021/12/25 16:48:27;;;;;;;4.75;3.58;;;21.50;61.80;;;;;;7869757;28;20177;-62
2021/12/25 16:52:12;;;;;;;4.38;3.35;;;21.50;61.80;;;;;;7870295;28;20216;-61
2021/12/25 16:55:58;;;;;;;3.97;3.00;;;21.50;61.80;;;;;;7870269;28;20181;-60
2021/12/25 16:59:43;;;;;;;3.90;3.30;;;21.40;61.80;;;;;;7869446;28;20483;-61
2021/12/25 17:03:29;;;;;;;4.75;3.58;;;21.40;61.80;;;;;;7870031;28;20246;-62
2021/12/25 17:07:15;;;;;;;4.47;3.08;;;21.40;61.90;;;;;;7869961;28;20180;-62
2021/12/25 17:11:00;;;;;;;4.57;3.58;;;21.40;61.80;;;;;;7869062;28;20694;-62
2021/12/25 17:14:47;;;;;;;3.75;3.00;;;21.30;62.00;;;;;;7869758;28;20865;-62
2021/12/25 17:18:33;;;;;;;4.10;3.00;;;21.30;62.00;;;;;;7868710;28;20170;-61
2021/12/25 17:22:19;;;;;;;3.65;3.00;;;21.30;62.00;;;;;;7869476;28;20231;-60
2021/12/25 17:26:04;;;;;;;6.35;3.05;;;21.30;62.20;;;;;;7869575;28;20248;-59
2021/12/25 17:29:50;;;;;;;7.00;2.90;;;21.30;61.20;;;;;;7868761;28;20257;-59
2021/12/25 17:33:36;;;;;;;9.77;3.45;;;21.20;59.00;;;;;;7869581;28;20839;-62
2021/12/25 17:37:21;;;;;;;10.15;3.67;;;21.20;59.30;;;;;;7869774;28;20775;-59
2021/12/25 17:41:10;;;;;;;10.25;3.50;;;21.20;60.80;;;;;;7868855;28;20205;-60
2021/12/25 17:44:56;;;;;;;12.38;4.03;;;21.20;60.90;;;;;;7869364;28;20181;-62
2021/12/25 17:48:42;;;;;;;13.30;5.05;;;21.20;58.30;;;;;;7862683;28;20738;-62
2021/12/25 17:52:28;;;;;;;21.45;4.80;;;21.00;57.90;;;;;;7851110;28;20295;-62
2021/12/25 17:56:14;;;;;;;20.08;4.70;;;21.00;59.40;;;;;;7838152;28;20192;-61
2021/12/25 17:59:59;;;;;;;12.57;4.68;;;21.00;59.80;;;;;;7836919;28;20177;-61
2021/12/25 18:03:45;;;;;;;24.75;4.25;;;21.10;59.00;;;;;;7837839;28;20182;-61
2021/12/25 18:07:31;;;;;;;13.18;4.35;;;21.20;59.30;;;;;;7837200;28;20181;-62
2021/12/25 18:11:16;;;;;;;26.80;9.13;;;21.20;60.00;;;;;;7843069;28;20252;-58
2021/12/25 18:15:04;;;;;;;44.30;15.27;;;21.40;60.40;;;;;;7866964;28;20185;-61
2021/12/25 18:18:51;;;;;;;43.30;12.65;;;21.50;64.40;;;;;;7867348;28;20213;-61
2021/12/25 18:22:37;;;;;;;36.75;10.77;;;21.70;65.30;;;;;;7867829;28;20201;-62
2021/12/25 18:26:23;;;;;;;26.95;8.80;;;22.00;65.50;;;;;;7867964;28;20184;-60
2021/12/25 18:30:12;;;;;;;27.05;9.75;;;22.30;65.60;;;;;;7870983;28;20239;-62
2021/12/25 18:33:58;;;;;;;10.65;4.00;;;22.60;65.70;;;;;;7874102;28;20657;-61
2021/12/25 18:37:43;;;;;;;20.90;6.75;;;22.80;56.50;;;;;;7873117;28;20607;-61
2021/12/25 18:41:31;;;;;;;17.45;5.72;;;22.80;63.80;;;;;;7868794;28;20202;-62
2021/12/25 18:45:18;;;;;;;12.60;5.43;;;22.90;65.00;;;;;;7840820;28;20186;-61
2021/12/25 18:49:04;;;;;;;19.73;5.18;;;23.20;65.30;;;;;;7840861;28;20197;-61
2021/12/25 18:52:52;;;;;;;10.13;4.13;;;23.40;65.40;;;;;;7841902;28;20205;-60
2021/12/25 18:56:38;;;;;;;9.07;4.40;;;23.50;65.40;;;;;;7869590;28;20203;-62
2021/12/25 19:00:33;;;;;;;12.02;4.53;;;23.60;65.60;;;;;;7872349;28;20235;-62
2021/12/25 19:04:18;;;;;;;11.90;4.28;;;23.60;65.50;;;;;;7869713;28;20710;-61
2021/12/25 19:08:04;;;;;;;15.70;4.30;;;23.70;65.50;;;;;;7841255;28;20557;-61
2021/12/25 19:11:50;;;;;;;10.38;4.15;;;23.70;65.70;;;;;;7855712;28;20252;-62
2021/12/25 19:15:36;;;;;;;15.10;4.28;;;23.70;65.80;;;;;;7870367;28;20177;-62
2021/12/25 19:19:22;;;;;;;13.40;3.83;;;23.70;65.70;;;;;;7847237;28;20282;-62
2021/12/25 19:23:08;;;;;;;9.68;4.10;;;23.70;66.60;;;;;;7841674;28;20228;-62
2021/12/25 19:26:54;;;;;;;15.32;4.10;;;23.60;65.60;;;;;;7841630;28;20257;-62
2021/12/25 19:30:41;;;;;;;7.57;3.45;;;23.60;66.00;;;;;;7860560;28;20212;-62
2021/12/25 19:34:27;;;;;;;11.90;4.10;;;23.50;66.50;;;;;;7870964;28;20558;-62
2021/12/25 19:38:16;;;;;;;6.13;3.83;;;23.50;66.80;;;;;;7868487;28;20247;-62
2021/12/25 19:42:03;;;;;;;7.50;3.40;;;23.40;66.90;;;;;;7869101;28;20201;-61
2021/12/25 19:45:50;;;;;;;8.60;3.75;;;23.30;67.10;;;;;;7872454;28;20187;-62
2021/12/25 19:49:35;;;;;;;23.52;9.15;;;23.40;67.30;;;;;;7871335;28;20296;-63
2021/12/25 19:53:23;;;;;;;34.58;15.70;;;23.30;61.30;;;;;;7872352;28;20201;-63
2021/12/25 19:57:09;;;;;;;30.92;12.98;;;23.30;65.00;;;;;;7872225;28;20173;-61
2021/12/25 20:01:03;;;;;;;30.10;10.13;;;23.30;65.20;;;;;;7871411;28;20194;-61
2021/12/25 20:04:48;;;;;;;19.20;9.35;;;23.40;64.00;;;;;;7871994;28;20221;-61
2021/12/25 20:08:34;;;;;;;17.35;8.63;;;23.50;61.70;;;;;;7871040;28;20181;-62
2021/12/25 20:12:19;;;;;;;20.83;9.90;;;23.60;60.20;;;;;;7871383;28;20205;-61
2021/12/25 20:16:07;;;;;;;21.55;11.30;;;23.60;60.10;;;;;;7871532;28;20522;-62
2021/12/25 20:19:52;;;;;;;18.80;9.82;;;23.60;62.60;;;;;;7870521;28;20177;-61
2021/12/25 20:23:38;;;;;;;19.35;10.50;;;23.50;61.70;;;;;;7871265;28;20181;-59
2021/12/25 20:27:23;;;;;;;16.00;8.98;;;23.40;56.80;;;;;;7869630;28;20177;-58
2021/12/25 20:31:11;;;;;;;15.85;9.57;;;23.20;59.70;;;;;;7868200;28;20648;-61
2021/12/25 20:34:58;;;;;;;17.38;9.68;;;23.10;59.00;;;;;;7868029;28;20189;-61
2021/12/25 20:38:44;;;;;;;19.92;9.82;;;23.10;58.60;;;;;;7867120;28;20174;-61
2021/12/25 20:42:30;;;;;;;16.77;9.60;;;23.10;57.60;;;;;;7866919;28;20196;-60
2021/12/25 20:46:16;;;;;;;24.17;9.27;;;23.20;57.90;;;;;;7876115;28;20205;-61
2021/12/25 20:50:02;;;;;;;16.65;9.50;;;23.20;58.10;;;;;;7878797;28;20205;-61